KFTW/FTW METAR and TAF weather

Enter ICAO airport designator
Station Type Date Time Source
KFTW METAR 2019/02/16 00:53 UTC NOAA

KFTW 160053Z 35017G24KT 10SM CLR 09/03 A2984 RMK AO2 SLP104 T00940028


Station Type Date Time Source
KFTW Decoded METAR 2019/02/16 00:53 UTC NOAA

FORT WORTH MEACHAM INTERNATIONAL ., TX, United States (KFTW) 32-50N 097-22W 214M
Feb 15, 2019 - 07:53 PM EST / 2019.02.16 0053 UTC
Wind: from the N (350 degrees) at 20 MPH (17 KT) gusting to 28 MPH (24 KT):0
Visibility: 10 mile(s):0
Sky conditions: clear
Temperature: 48.9 F (9.4 C)
Dew Point: 37.0 F (2.8 C)
Relative Humidity: 63%
Pressure (altimeter): 29.84 in. Hg (1010 hPa)
ob: KFTW 160053Z 35017G24KT 10SM CLR 09/03 A2984 RMK AO2 SLP104 T00940028
cycle: 1

Station Type Date Time Source
KFTW TAF 2019/02/15 21:54 UTC NOAA

TAF
AMD KFTW 152051Z 1521/1618 33012KT P6SM SCT150 BKN250
FM152300 36017KT P6SM BKN250
FM160600 01012KT P6SM SCT030 BKN200
FM160900 04011KT P6SM SCT015 BKN030


Example: see airport list